Austin, UT

10:39 AM MST on December 25, 2014 (GMT -0700)
Little Green Valley | Change Station
CLOSE
Current Station
Personal Weather Station
Location: Monroe, UT
Elevation: 5360 ft
Nearby Weather Stations
Active Advisory: Winter Storm Warning Active Notice: Public Information Statement

Elev 5360 ft 38.64 °N, 112.12 °W | Updated 19 seconds ago

Snow
Snow
31.3 °F
Feels Like 31 °F
N
0.0
Wind Variable Wind from SSW
Gusts 0.0 mph

Today
High -- | Low -- °F
--% Chance of Precip.
Yesterday
High -- | Low -- °F
Precip. -- in
7:44 AM 5:12 PM
Waxing Crescent, 18% visible
Pressure 29.71 in
Visibility 1.8 miles
Clouds Mostly Cloudy 1200 ft
Mostly Cloudy 2700 ft
Overcast 3200 ft
Windchill 31 °F
Dew Point 23 °F
Humidity 71%
Rainfall 0.00 in
Snow Depth Not available.
UV 1 out of 12
Pollen .10 out of 12
Air Quality Not available.
Flu Activity Not available.
SPECI KMLF 251735Z AUTO 35014KT 1 3/4SM -SN BR BKN012 BKN027 OVC032 M03/M06 A2971 RMK AO2 P0003 T10331056 TSNO $

More Conditions Fewer Conditions

Pressure 29.71 in
Visibility 1.8 miles
Clouds Mostly Cloudy 1200 ft
Mostly Cloudy 2700 ft
Overcast 3200 ft
Windchill 31 °F
Dew Point 23 °F
Humidity 71%
Rainfall 0.00 in
Snow Depth Not available.
UV 1 out of 12
Pollen .10 out of 12
Air Quality Not available.
Flu Activity Not available.
SPECI KMLF 251735Z AUTO 35014KT 1 3/4SM -SN BR BKN012 BKN027 OVC032 M03/M06 A2971 RMK AO2 P0003 T10331056 TSNO $

More Conditions Fewer Conditions

10-Day Weather Forecast

Almanac

Astronomy

Dec. 25, 2014 Rise Set
Actual Time
Civil Twilight
Nautical Twilight
Astronomical Twilight
Moon
Length of Visible Light
Length of Day
Tomorrow will be .
, % of the Moon is Illuminated

Today's Extremes

State Highs State Lows

Community

WunderPhotos

Upload Photos

1,780,349 photos uploaded!

WunderBlogs® & News

Nearby

Air Quality

  Air Quality AQ Index Pollutant
Not available.

Snow Depth

Station Depth Elevation

Earthquake Activity

City Distance Mag. Time & Date
Minimum magnitude displayed is 2.5.

Coastal Water Temperatures

Place Temperature

Nearby Weather Stations